This is the latest recevied weather packets stored in our database for station/object KN6DHD. If no packets are shown the sender has not sent any weather packets the latest 10 day(s).
| Time | Temp. | Humidity | Pressure | Rain* | Wind** | Luminosity | Snow |
|---|---|---|---|---|---|---|---|
| 1777252117 | 17.22° C | 55% | 1013.6 hPa | 0 mm | - | 126 W/m² | - |
| 1777251814 | 17.22° C | 55% | 1013.6 hPa | 0 mm | - | 137 W/m² | - |
| 1777251511 | 17.22° C | 55% | 1013.6 hPa | 0 mm | - | 55 W/m² | - |
| 1777251207 | 17.78° C | 53% | 1013.6 hPa | 0 mm | - | 57 W/m² | - |
| 1777250903 | 18.33° C | 52% | 1013.6 hPa | 0 mm | - | 131 W/m² | - |
| 1777250600 | 17.78° C | 53% | 1013.7 hPa | 0 mm | - | 146 W/m² | - |
| 1777250296 | 17.78° C | 54% | 1013.5 hPa | 0 mm | - | 124 W/m² | - |
| 1777249992 | 17.78° C | 54% | 1013.3 hPa | 0 mm | - | 120 W/m² | - |
| 1777249689 | 18.33° C | 53% | 1013.5 hPa | 0 mm | - | 141 W/m² | - |
| 1777249384 | 18.89° C | 53% | 1013.4 hPa | 0 mm | - | 155 W/m² | - |
| 1777249081 | 18.33° C | 54% | 1013.5 hPa | 0 mm | - | 294 W/m² | - |
| 1777248777 | 18.33° C | 53% | 1013.5 hPa | 0 mm | - | 323 W/m² | - |
| 1777248474 | 17.78° C | 54% | 1013.3 hPa | 0 mm | - | 156 W/m² | - |
| 1777248171 | 18.89° C | 53% | 1013.3 hPa | 0 mm | - | 120 W/m² | - |
| 1777247870 | 19.44° C | 52% | 1013.3 hPa | 0 mm | - | 472 W/m² | - |
| 1777247566 | 18.33° C | 53% | 1013.3 hPa | 0 mm | - | 513 W/m² | - |
| 1777247264 | 18.33° C | 53% | 1013.4 hPa | 0 mm | - | 502 W/m² | - |
| 1777246962 | 17.78° C | 53% | 1013.4 hPa | 0 mm | - | 444 W/m² | - |
| 1777246658 | 18.89° C | 51% | 1013.5 hPa | 0 mm | - | 134 W/m² | - |
| 1777246354 | 18.89° C | 51% | 1013.2 hPa | 0 mm | - | 494 W/m² | - |
| 1777246052 | 17.78° C | 54% | 1013.2 hPa | 0 mm | - | 478 W/m² | - |
| 1777245750 | 17.78° C | 58% | 1013.1 hPa | 0 mm | - | 116 W/m² | - |
| 1777245447 | 17.78° C | 58% | 1013.3 hPa | 0 mm | - | 127 W/m² | - |
| 1777245142 | 17.78° C | 60% | 1013.2 hPa | 0 mm | - | 144 W/m² | - |
| 1777244839 | 17.78° C | 63% | 1013.3 hPa | 0 mm | - | 104 W/m² | - |
* Rain latest hour (hover to see other rain measurements)
** Current wind speed in m/s (hover to see current wind gust speed)